• Join FlightAware (Why Join?)
  • Login
  • US Flag 
04:13AM EDT


 

Airport Tracker/Info


-or-


 

Live Flight TrackerFlight Track Log ✈ AZA621 ✈ 14-Jul-2013 ✈ KLAX - LIRF / FCO

Flight Track Log - Related Links

Times and Time Zones

All times are in EDT time to prevent confusion due to time zone crossing. See the AZA621 flight status page for this flight to view local times or setup timezone preferences in your user account.

Time Position Orientation Groundspeed Altitude Reporting Facility
EDT Latitude Longitude Course Direction KTS MPH feet Rate Location/Type
08:55PM 33.9470 -118.4380 263° West 175 201 800  Level FlightAware
08:55PM 33.9450 -118.4600 264° West 173 199 2,000 2,640 Climbing FlightAware
08:56PM 33.9440 -118.4730 265° West 169 194 2,400 1,500 Climbing FlightAware
08:56PM 33.9400 -118.4920 256° West 183 211 2,900 1,500 Climbing FlightAware
08:56PM 33.9210 -118.5180 229° Southwest 201 231 3,800 1,440 Climbing FlightAware
08:57PM 33.9050 -118.5250 200° South 220 253 4,100 900 Climbing FlightAware
08:57PM 33.8780 -118.5310 190° South 246 283 4,400 960 Climbing FlightAware
08:58PM 33.8420 -118.5390 190° South 275 316 5,000 1,500 Climbing FlightAware
08:58PM 33.8070 -118.5490 193° South 281 323 5,900 2,040 Climbing FlightAware
08:59PM 33.7680 -118.5580 191° South 288 331 7,000 2,160 Climbing FlightAware
08:59PM 33.7340 -118.5490 168° South 292 336 8,000 2,400 Climbing FlightAware
09:00PM 33.6940 -118.5340 163° South 292 336 9,300 2,460 Climbing FlightAware
09:00PM 33.6820 -118.5240 145° Southeast 294 338 9,700 1,620 Climbing FlightAware
09:00PM 33.6730 -118.5100 128° Southeast 301 346 9,900 780 Climbing FlightAware
09:00PM 33.6670 -118.4950 116° Southeast 311 358 10,000 1,320 Climbing FlightAware
09:01PM 33.6540 -118.4260 103° East 330 380 11,000 1,860 Climbing FlightAware
09:01PM 33.6410 -118.3460 101° East 339 390 12,600 2,100 Climbing FlightAware
09:02PM 33.6520 -118.2940 76° East 348 400 13,500 1,860 Climbing FlightAware
09:03PM 33.6910 -118.2220 57° Northeast 356 410 14,900 1,800 Climbing FlightAware
09:03PM 33.7320 -118.1490 56° Northeast 364 419 16,200 1,620 Climbing FlightAware
09:04PM 33.7720 -118.0770 56° Northeast 379 436 17,300 1,200 Climbing FlightAware
09:05PM 33.8250 -118.0180 43° Northeast 403 464 17,900 1,200 Climbing FlightAware
09:05PM 33.8910 -117.9570 37° Northeast 410 472 19,000 1,380 Climbing FlightAware
09:06PM 33.9530 -117.9010 37° Northeast 419 482 19,900 1,320 Climbing FlightAware
09:07PM 34.0210 -117.8400 37° Northeast 426 490 20,900 1,260 Climbing FlightAware
09:08PM 34.0850 -117.7790 38° Northeast 432 497 21,700 1,200 Climbing FlightAware
09:08PM 34.1380 -117.7120 46° Northeast 437 503 22,500 1,200 Climbing FlightAware
09:09PM 34.1990 -117.6300 48° Northeast 444 511 23,400 1,200 Climbing FlightAware
09:10PM 34.2490 -117.5610 49° Northeast 451 519 24,100 1,080 Climbing FlightAware
09:10PM 34.3030 -117.4870 49° Northeast 456 525 24,800 1,020 Climbing FlightAware
09:11PM 34.3770 -117.3860 48° Northeast 466 536 25,700 1,020 Climbing FlightAware
09:12PM 34.4320 -117.3110 48° Northeast 471 542 26,400 1,080 Climbing FlightAware
09:12PM 34.4860 -117.2370 48° Northeast 474 545 27,100 1,020 Climbing FlightAware
09:13PM 34.5500 -117.1490 49° Northeast 480 552 27,800 960 Climbing FlightAware
09:14PM 34.6100 -117.0670 48° Northeast 485 558 28,500 1,020 Climbing FlightAware
09:14PM 34.6650 -116.9920 48° Northeast 488 562 29,200 480 Climbing FlightAware
09:15PM 34.7280 -116.9060 48° Northeast 488 562 29,200 840 Level FlightAware
09:16PM 34.7970 -116.8090 49° Northeast 501 577 30,500 1,260 Climbing FlightAware
09:17PM 34.8670 -116.7110 49° Northeast 508 585 31,000 660 Climbing FlightAware
09:17PM 34.9280 -116.6260 49° Northeast 512 589 31,500 720 Climbing FlightAware
09:18PM 34.9920 -116.5420 47° Northeast 517 595 32,000 600 Climbing FlightAware
09:19PM 35.0680 -116.4470 46° Northeast 516 594 32,400 240 Climbing FlightAware
09:20PM 35.1370 -116.3630 45° Northeast 516 594 32,400  Level FlightAware
09:20PM 35.1900 -116.2980 45° Northeast 516 594 32,400 1,980 Level FlightAware
09:21PM 35.2790 -116.1820 47° Northeast 497 572 35,000 1,740 Climbing FlightAware
09:22PM 35.3500 -116.0930 46° Northeast 502 578 35,000  Level FlightAware
09:22PM 35.4160 -116.0100 46° Northeast 499 574 35,000  Level FlightAware
09:23PM 35.4800 -115.9280 46° Northeast 500 575 35,000  Level FlightAware
09:24PM 35.5440 -115.8480 45° Northeast 500 575 35,000  Level FlightAware
09:24PM 35.6090 -115.7650 46° Northeast 501 577 35,000  Level FlightAware
09:25PM 35.6890 -115.6630 46° Northeast 500 575 35,000  Level FlightAware
09:26PM 35.8020 -115.5180 46° Northeast 500 575 35,000  Level FlightAware
09:27PM 35.8670 -115.4350 46° Northeast 501 577 35,000  Level FlightAware
09:28PM 35.9370 -115.3440 46° Northeast 500 575 35,000  Level FlightAware
09:28PM 35.9990 -115.2640 46° Northeast 497 572 35,000  Level FlightAware
09:29PM 36.0700 -115.1720 46° Northeast 498 573 35,000  Level FlightAware
09:30PM 36.1350 -115.0890 46° Northeast 498 573 35,000  Level FlightAware
09:30PM 36.1930 -115.0160 45° Northeast 500 575 35,000  Level FlightAware
09:31PM 36.2610 -114.9310 45° Northeast 502 578 35,000  Level FlightAware
09:32PM 36.3320 -114.8400 46° Northeast 502 578 35,000  Level FlightAware
09:32PM 36.3840 -114.7730 46° Northeast 504 580 35,000  Level FlightAware
09:33PM 36.4560 -114.6800 46° Northeast 504 580 35,000  Level FlightAware
09:34PM 36.5210 -114.5940 47° Northeast 505 581 35,000  Level FlightAware
09:34PM 36.5690 -114.5310 46° Northeast 507 583 35,000  Level FlightAware
09:35PM 36.6340 -114.4460 46° Northeast 506 582 35,000  Level FlightAware
09:36PM 36.7030 -114.3560 46° Northeast 507 583 35,000  Level FlightAware
09:36PM 36.7740 -114.2730 43° Northeast 509 586 35,000  Level FlightAware
09:37PM 36.8520 -114.2090 33° Northeast 510 587 35,000  Level FlightAware
09:38PM 36.9390 -114.1420 32° Northeast 511 588 35,000  Level FlightAware
09:38PM 37.0270 -114.0740 32° Northeast 511 588 35,000  Level FlightAware
09:39PM 37.0940 -114.0210 32° Northeast 511 588 35,000  Level FlightAware
09:40PM 37.1690 -113.9640 31° Northeast 509 586 35,000  Level FlightAware
09:40PM 37.2630 -113.8900 32° Northeast 510 587 35,000  Level FlightAware
09:41PM 37.3680 -113.8070 32° Northeast 509 586 35,000  Level FlightAware
09:42PM 37.4290 -113.7590 32° Northeast 509 586 35,000  Level FlightAware
09:43PM 37.5110 -113.6950 32° Northeast 509 586 35,000  Level FlightAware
09:43PM 37.5720 -113.6470 32° Northeast 509 586 35,000  Level FlightAware
09:44PM 37.6550 -113.5810 32° Northeast 509 586 35,000  Level FlightAware
09:45PM 37.7130 -113.5360 32° Northeast 509 586 35,000  Level FlightAware
09:46PM 37.7940 -113.4710 32° Northeast 509 586 35,000  Level FlightAware
09:46PM 37.8550 -113.4230 32° Northeast 509 586 35,000  Level FlightAware
09:47PM 37.9160 -113.3750 32° Northeast 509 586 35,000  Level FlightAware
09:48PM 37.9980 -113.3100 32° Northeast 509 586 35,000  Level FlightAware
09:48PM 38.0590 -113.2620 32° Northeast 509 586 35,000  Level FlightAware
09:49PM 38.1200 -113.2130 32° Northeast 509 586 35,000  Level FlightAware
09:50PM 38.2030 -113.1470 32° Northeast 509 586 35,000  Level FlightAware
09:50PM 38.2850 -113.0820 32° Northeast 509 586 35,000  Level FlightAware
09:50PM 38.4703 -112.8860 40° Northeast 518 596 35,000  Level FlightAware ADS-B
09:51PM 38.5594 -112.7820 42° Northeast 517 595 35,000  Level FlightAware ADS-B
09:52PM 38.6125 -112.7200 42° Northeast 516 594 35,000  Level FlightAware ADS-B
09:52PM 38.6681 -112.6550 42° Northeast 517 595 35,000  Level FlightAware ADS-B
09:53PM 38.7523 -112.5560 43° Northeast 517 595 35,000  Level FlightAware ADS-B
09:54PM 38.8052 -112.4940 42° Northeast 517 595 35,000  Level FlightAware ADS-B
09:54PM 38.8922 -112.3910 43° Northeast 517 595 35,000  Level FlightAware ADS-B
09:55PM 38.9465 -112.3270 43° Northeast 518 596 35,000  Level FlightAware ADS-B
09:56PM 39.0022 -112.2610 43° Northeast 518 596 35,000  Level FlightAware ADS-B
09:56PM 39.0556 -112.1980 42° Northeast 518 596 35,000  Level FlightAware ADS-B
09:57PM 39.1088 -112.1340 43° Northeast 519 597 35,000  Level FlightAware ADS-B
09:57PM 39.1907 -112.0360 43° Northeast 519 597 35,000  Level FlightAware ADS-B
09:58PM 39.2439 -111.9730 43° Northeast 519 597 35,000  Level FlightAware ADS-B
09:58PM 39.2983 -111.9080 43° Northeast 519 597 35,000  Level FlightAware ADS-B
09:59PM 39.3527 -111.8420 43° Northeast 520 598 35,000  Level FlightAware ADS-B
09:59PM 39.4057 -111.7780 43° Northeast 519 597 35,000  Level FlightAware ADS-B
10:00PM 39.4644 -111.7080 43° Northeast 518 596 35,000  Level FlightAware ADS-B
10:00PM 39.5173 -111.6430 43° Northeast 519 597 35,000  Level FlightAware ADS-B
10:01PM 39.5728 -111.5760 43° Northeast 518 596 35,000  Level FlightAware ADS-B
10:01PM 39.6250 -111.5120 43° Northeast 517 595 35,000  Level FlightAware ADS-B
10:02PM 39.6788 -111.4470 43° Northeast 517 595 35,000  Level FlightAware ADS-B
10:02PM 39.7327 -111.3810 43° Northeast 517 595 35,000  Level FlightAware ADS-B
10:03PM 39.7848 -111.3170 43° Northeast 516 594 35,000  Level FlightAware ADS-B
10:03PM 39.8369 -111.2530 43° Northeast 517 595 35,000  Level FlightAware ADS-B
10:04PM 39.8903 -111.1880 43° Northeast 518 596 35,000  Level FlightAware ADS-B
10:05PM 39.9439 -111.1220 43° Northeast 518 596 35,000  Level FlightAware ADS-B
10:05PM 39.9972 -111.0560 43° Northeast 518 596 35,000  Level FlightAware ADS-B
10:06PM 40.0506 -110.9900 43° Northeast 518 596 35,000  Level FlightAware ADS-B
10:06PM 40.1033 -110.9240 44° Northeast 518 596 35,000  Level FlightAware ADS-B
10:07PM 40.1556 -110.8590 44° Northeast 516 594 35,000  Level FlightAware ADS-B
10:07PM 40.2077 -110.7940 44° Northeast 516 594 35,000  Level FlightAware ADS-B
10:08PM 40.2603 -110.7290 43° Northeast 516 594 35,000  Level FlightAware ADS-B
10:08PM 40.3127 -110.6630 44° Northeast 516 594 35,000  Level FlightAware ADS-B
10:09PM 40.3645 -110.5980 44° Northeast 516 594 35,000  Level FlightAware ADS-B
10:09PM 40.4145 -110.5350 44° Northeast 517 595 35,000  Level FlightAware ADS-B
10:10PM 40.4693 -110.4660 44° Northeast 518 596 35,000  Level FlightAware ADS-B
10:10PM 40.5238 -110.3970 44° Northeast 518 596 35,000  Level FlightAware ADS-B
10:11PM 40.5762 -110.3310 44° Northeast 519 597 35,000  Level FlightAware ADS-B
10:11PM 40.6287 -110.2640 44° Northeast 520 598 35,000  Level FlightAware ADS-B
10:12PM 40.7400 -110.1220 44° Northeast 519 597 35,000  Level FlightAware
10:13PM 40.8080 -110.0360 44° Northeast 521 600 35,000  Level FlightAware
10:14PM 40.8850 -109.9370 44° Northeast 521 600 35,000  Level FlightAware
10:14PM 40.9610 -109.8380 45° Northeast 521 600 35,000  Level FlightAware
10:15PM 41.0310 -109.7480 44° Northeast 521 600 35,000  Level FlightAware
10:16PM 41.1070 -109.6500 44° Northeast 521 600 35,000  Level FlightAware
10:16PM 41.1740 -109.5620 45° Northeast 521 600 35,000  Level FlightAware
10:17PM 41.2500 -109.4630 44° Northeast 521 600 35,000  Level FlightAware
10:18PM 41.3210 -109.3710 44° Northeast 523 602 35,000  Level FlightAware
10:19PM 41.3950 -109.2730 45° Northeast 523 602 35,000  Level FlightAware
10:19PM 41.4670 -109.1780 45° Northeast 522 601 35,000  Level FlightAware
10:20PM 41.5360 -109.0870 45° Northeast 523 602 35,000  Level FlightAware
10:21PM 41.5960 -109.0020 47° Northeast 526 605 35,000  Level FlightAware
10:21PM 41.6630 -108.8890 52° Northeast 527 606 35,000  Level FlightAware
10:22PM 41.7170 -108.7940 53° Northeast 524 603 35,000  Level FlightAware
10:23PM 41.7800 -108.6820 53° Northeast 521 600 35,000  Level FlightAware
10:23PM 41.8440 -108.5690 53° Northeast 520 598 35,000  Level FlightAware
10:24PM 41.9030 -108.4640 53° Northeast 523 602 35,000  Level FlightAware
10:25PM 41.9670 -108.3510 53° Northeast 524 603 35,000  Level FlightAware
10:25PM 42.0160 -108.2640 53° Northeast 524 603 35,000  Level FlightAware
10:26PM 42.0770 -108.1550 53° Northeast 524 603 35,000  Level FlightAware
10:27PM 42.1210 -108.0760 53° Northeast 524 603 35,000  Level FlightAware
10:28PM 42.1810 -107.9690 53° Northeast 524 603 35,000  Level FlightAware
10:28PM 42.2250 -107.8890 53° Northeast 524 603 35,000  Level FlightAware
10:29PM 42.2850 -107.7820 53° Northeast 524 603 35,000  Level FlightAware
10:30PM 42.3590 -107.6490 53° Northeast 524 603 35,000  Level FlightAware
10:31PM 42.4350 -107.5130 53° Northeast 524 603 35,000  Level FlightAware
10:32PM 42.4800 -107.4320 53° Northeast 524 603 35,000  Level FlightAware
10:32PM 42.5240 -107.3520 53° Northeast 524 603 35,000  Level FlightAware
10:33PM 42.5840 -107.2450 53° Northeast 524 603 35,000  Level FlightAware
10:34PM 42.6270 -107.1660 53° Northeast 524 603 35,000  Level FlightAware
10:34PM 42.6870 -107.0590 53° Northeast 524 603 35,000  Level FlightAware
10:36PM 42.9147 -106.6161 53° Northeast 529 609 35,000  Level Denver Center
10:37PM 42.9958 -106.4611 54° Northeast 528 608 35,000  Level Denver Center
10:38PM 43.1039 -106.2533 54° Northeast 525 604 35,000  Level Denver Center
10:39PM 43.1803 -106.0928 57° Northeast 524 603 35,000  Level Denver Center
10:40PM 43.2661 -105.9022 58° Northeast 526 605 35,000  Level Denver Center
10:41PM 43.3425 -105.7378 57° Northeast 531 611 35,000  Level Denver Center
10:42PM 43.4308 -105.5469 57° Northeast 529 609 35,000  Level Denver Center
10:43PM 43.5069 -105.3819 58° Northeast 532 612 35,000  Level Denver Center
10:44PM 43.5825 -105.2181 57° Northeast 530 610 35,000  Level Denver Center
10:45PM 43.6686 -105.0264 58° Northeast 526 605 35,000  Level Denver Center
10:46PM 43.7425 -104.8631 58° Northeast 524 603 35,000  Level Denver Center
10:47PM 43.8278 -104.6700 58° Northeast 524 603 35,000  Level Denver Center
10:48PM 43.9006 -104.5058 58° Northeast 523 602 35,000  Level Denver Center
10:49PM 43.9856 -104.3117 59° Northeast 525 604 35,000  Level Denver Center
10:50PM 44.0592 -104.1492 58° Northeast 521 600 35,000  Level Denver Center
10:51PM 44.1436 -103.9542 59° Northeast 524 603 35,000  Level Denver Center
10:52PM 44.2156 -103.7853 59° Northeast 527 606 35,000  Level Denver Center
10:53PM 44.2892 -103.6178 58° Northeast 530 610 35,000  Level Denver Center
10:54PM 44.3722 -103.4222 59° Northeast 525 604 35,000  Level Denver Center
10:56PM 44.4433 -103.2547 59° Northeast 524 603 35,000  Level Denver Center
10:57PM 44.5175 -103.0858 58° Northeast 523 602 35,000  Level Denver Center
10:58PM 44.6050 -102.8725 60° Northeast 525 604 35,000  Level Denver Center
10:59PM 44.6814 -102.6956 59° Northeast 529 609 35,000  Level Denver Center
11:00PM 44.7733 -102.5353 51° Northeast 527 606 35,000  Level Denver Center
11:01PM 44.8736 -102.3842 47° Northeast 527 606 35,000  Level Denver Center
11:02PM 44.9867 -102.1986 49° Northeast 522 601 35,000  Level Minneapolis Center
11:03PM 45.0864 -102.0464 47° Northeast 524 603 35,000  Level Minneapolis Center
11:04PM 45.1864 -101.8922 47° Northeast 527 606 35,000  Level Minneapolis Center
11:05PM 45.2856 -101.7364 48° Northeast 529 609 35,000  Level Minneapolis Center
11:06PM 45.3836 -101.5781 49° Northeast 531 611 35,000  Level Minneapolis Center
11:07PM 45.4828 -101.4206 48° Northeast 532 612 35,000  Level Minneapolis Center
11:08PM 45.5808 -101.2614 49° Northeast 533 613 35,000  Level Minneapolis Center
11:09PM 45.6786 -101.1031 48° Northeast 531 611 35,000  Level Minneapolis Center
11:10PM 45.7756 -100.9417 49° Northeast 531 611 35,000  Level Minneapolis Center
11:11PM 45.8747 -100.7800 49° Northeast 534 615 35,000  Level Minneapolis Center
11:12PM 45.9747 -100.6128 49° Northeast 542 624 35,000  Level Minneapolis Center
11:13PM 46.0725 -100.4483 49° Northeast 539 620 35,000  Level Minneapolis Center
11:14PM 46.1708 -100.2844 49° Northeast 539 620 35,000  Level Minneapolis Center
11:15PM 46.2878 -100.0844 50° Northeast 541 623 35,000  Level Minneapolis Center
11:16PM 46.3861 -99.9194 49° Northeast 541 623 35,000  Level Minneapolis Center
11:17PM 46.4819 -99.7522 50° Northeast 540 621 35,000  Level Minneapolis Center
11:18PM 46.5792 -99.5836 50° Northeast 543 625 35,000 -60 Level Minneapolis Center
11:19PM 46.6697 -99.4264 50° Northeast 543 625 34,900  Descending Minneapolis Center
11:20PM 46.7664 -99.2578 50° Northeast 543 625 35,000  Climbing Minneapolis Center
11:26PM 47.3280 -98.2590 50° Northeast 550 633 35,000  Level FlightAware
11:27PM 47.3940 -98.1380 51° Northeast 551 634 35,000  Level FlightAware
11:27PM 47.4660 -98.0060 51° Northeast 552 635 35,000  Level FlightAware
11:28PM 47.5300 -97.8900 51° Northeast 552 635 35,000  Level FlightAware
11:29PM 47.5990 -97.7610 52° Northeast 553 636 35,000  Level FlightAware
11:29PM 47.6600 -97.6500 51° Northeast 553 636 35,000  Level FlightAware
11:30PM 47.7340 -97.5110 52° Northeast 554 638 35,000  Level FlightAware
11:31PM 47.8020 -97.3850 51° Northeast 555 639 35,000  Level FlightAware
11:31PM 47.8720 -97.2540 51° Northeast 555 639 35,000  Level FlightAware
11:32PM 47.9210 -97.1600 52° Northeast 556 640 35,000  Level FlightAware
11:33PM 47.9920 -97.0270 51° Northeast 557 641 35,000  Level FlightAware
11:33PM 48.0560 -96.9040 52° Northeast 558 642 35,000  Level FlightAware
11:34PM 48.1250 -96.7720 52° Northeast 557 641 35,000  Level FlightAware
11:35PM 48.1880 -96.6500 52° Northeast 558 642 35,000  Level FlightAware
11:36PM 48.2580 -96.5160 52° Northeast 560 644 35,000  Level FlightAware
11:36PM 48.3210 -96.3930 52° Northeast 560 644 35,000  Level FlightAware
11:37PM 48.3840 -96.2700 52° Northeast 561 646 35,000  Level FlightAware
11:37PM 48.4390 -96.1620 52° Northeast 562 647 35,000  Level FlightAware
11:38PM 48.5040 -96.0350 52° Northeast 561 646 35,000  Level FlightAware
11:39PM 48.5960 -95.8550 52° Northeast 563 648 35,000  Level FlightAware
11:40PM 48.6630 -95.7260 52° Northeast 563 648 35,000  Level FlightAware
11:41PM 48.7120 -95.6310 52° Northeast 563 648 35,000  Level FlightAware
11:41PM 48.7770 -95.5040 52° Northeast 563 648 35,000  Level FlightAware
11:42PM 48.8260 -95.4090 52° Northeast 563 648 35,000  Level FlightAware
11:43PM 48.8920 -95.2810 52° Northeast 563 648 35,000  Level FlightAware
11:43PM 48.9410 -95.1860 52° Northeast 563 648 35,000  Level FlightAware
11:44PM 48.9910 -95.0870 52° Northeast 563 648 35,000  Level FlightAware
11:45PM 49.0400 -94.9920 52° Northeast 563 648 35,000  Level FlightAware
11:45PM 49.1070 -94.8610 52° Northeast 563 648 35,000  Level FlightAware
11:46PM 49.1560 -94.7650 52° Northeast 563 648 35,000  Level FlightAware
11:47PM 49.2050 -94.6690 52° Northeast 563 648 35,000  Level FlightAware
11:47PM 49.2700 -94.5410 52° Northeast 563 648 35,000  Level FlightAware
11:48PM 49.3210 -94.4420 52° Northeast 563 648 35,000  Level FlightAware
11:49PM 49.4667 -93.9333 52° Northeast 560 644 35,000  Level Winnipeg Center
11:50PM 49.5167 -93.7000 72° East 560 644 35,000  Level Winnipeg Center
11:51PM 49.5333 -93.4667 84° East 560 644 35,000  Level Winnipeg Center
11:52PM 49.5667 -93.2333 77° East 560 644 35,000  Level Winnipeg Center
11:58PM 49.7810 -91.8430 77° East 559 643 35,000  Level FlightAware
11:59PM 49.7980 -91.7130 78° East 559 643 35,000  Level FlightAware
11:59PM 49.8210 -91.5500 78° East 559 643 35,000  Level FlightAware
12:00AM 49.8370 -91.4300 78° East 559 643 35,000  Level FlightAware
12:01AM 49.8540 -91.3100 78° East 559 643 35,000  Level FlightAware
12:01AM 49.8750 -91.1560 78° East 559 643 35,000  Level FlightAware
12:02AM 49.8910 -91.0360 78° East 559 643 35,000  Level FlightAware
12:03AM 49.9080 -90.9160 78° East 559 643 35,000  Level FlightAware
12:03AM 49.9290 -90.7550 78° East 559 643 35,000  Level FlightAware
12:04AM 49.9460 -90.6350 78° East 559 643 35,000  Level FlightAware
12:05AM 49.9680 -90.4750 78° East 559 643 35,000  Level FlightAware
12:05AM 49.9840 -90.3540 78° East 559 643 35,000  Level FlightAware
12:06AM 50.0070 -90.1900 78° East 559 643 35,000  Level FlightAware
12:07AM 50.0230 -90.0700 78° East 559 643 35,000  Level FlightAware
12:07AM 50.0390 -89.9490 78° East 559 643 35,000  Level FlightAware
12:08AM 50.1667 -89.4833 78° East 550 633 35,000  Level Edmonton Center
12:09AM 50.2333 -89.3000 60° Northeast 530 610 35,000  Level Edmonton Center
12:10AM 50.3333 -89.1000 52° Northeast 580 667 35,000  Level Edmonton Center
12:11AM 50.4167 -88.8833 59° Northeast 560 644 35,000  Level Edmonton Center
12:12AM 50.5167 -88.6833 52° Northeast 530 610 35,000  Level Edmonton Center
12:13AM 50.6000 -88.4667 59° Northeast 590 679 35,000  Level Edmonton Center
12:14AM 50.6667 -88.2667 62° Northeast 530 610 35,000  Level Edmonton Center
12:15AM 50.7833 -88.0833 45° Northeast 560 644 35,000  Level Winnipeg Center
12:16AM 50.8667 -87.8333 62° Northeast 580 667 35,000  Level Edmonton Center
12:17AM 50.9500 -87.6500 54° Northeast 570 656 35,000  Level Winnipeg Center
12:18AM 51.0500 -87.4667 49° Northeast 570 656 35,000  Level Winnipeg Center
12:19AM 51.1333 -87.2333 60° Northeast 580 667 35,000  Level Winnipeg Center
12:20AM 51.2000 -87.0167 64° Northeast 570 656 35,000  Level Edmonton Center
12:21AM 51.2833 -86.8167 56° Northeast 570 656 35,000  Level Edmonton Center
12:22AM 51.3667 -86.5833 60° Northeast 570 656 35,000  Level Edmonton Center
12:23AM 51.4500 -86.3833 56° Northeast 560 644 35,000  Level Edmonton Center
12:24AM 51.5333 -86.1667 58° Northeast 580 667 35,000  Level Edmonton Center
12:25AM 51.6167 -85.9333 60° Northeast 570 656 35,000  Level Edmonton Center
12:26AM 51.7000 -85.7333 56° Northeast 570 656 35,000  Level Edmonton Center
12:27AM 51.7833 -85.5000 60° Northeast 580 667 35,000  Level Edmonton Center
12:28AM 51.8667 -85.2833 58° Northeast 570 656 35,000  Level Edmonton Center
12:29AM 51.9500 -85.0500 60° Northeast 580 667 35,000  Level Edmonton Center
12:30AM 52.0333 -84.8333 58° Northeast 580 667 35,000  Level Edmonton Center
12:31AM 52.1000 -84.6000 65° Northeast 580 667 35,000  Level Edmonton Center
12:32AM 52.2000 -84.3500 57° Northeast 590 679 35,000  Level Edmonton Center
12:33AM 52.2833 -84.1500 56° Northeast 580 667 35,000  Level Edmonton Center
12:34AM 52.3500 -83.9000 66° East 580 667 35,000  Level Edmonton Center
12:35AM 52.4333 -83.6833 58° Northeast 570 656 35,000  Level Edmonton Center
12:36AM 52.5167 -83.4500 60° Northeast 590 679 35,000  Level Edmonton Center
12:37AM 52.6000 -83.2500 55° Northeast 560 644 35,000  Level Edmonton Center
12:38AM 52.6667 -82.9833 68° East 600 690 35,000  Level Edmonton Center
12:39AM 52.7500 -82.7667 58° Northeast 590 679 35,000  Level Edmonton Center
12:40AM 52.8333 -82.5167 61° Northeast 580 667 35,000  Level Edmonton Center
12:41AM 52.9167 -82.3000 57° Northeast 590 679 35,000  Level Edmonton Center
12:42AM 52.9833 -82.0500 66° East 590 679 35,000  Level Edmonton Center
12:43AM 53.0667 -81.8333 57° Northeast 590 679 35,000  Level Edmonton Center
12:44AM 53.1333 -81.5833 66° East 590 679 35,000  Level Edmonton Center
12:45AM 53.2167 -81.3167 62° Northeast 590 679 35,000  Level Edmonton Center
12:46AM 53.3000 -81.1000 57° Northeast 590 679 35,000  Level Edmonton Center
12:47AM 53.3667 -80.8500 66° East 590 679 35,000  Level Edmonton Center
12:48AM 53.4500 -80.5833 62° Northeast 590 679 35,000  Level Edmonton Center
12:49AM 53.5167 -80.3500 64° Northeast 590 679 35,000  Level Edmonton Center
12:50AM 53.6000 -80.0833 62° Northeast 590 679 35,000  Level Edmonton Center
12:51AM 53.6667 -79.8333 66° East 590 679 35,000  Level Edmonton Center
12:52AM 53.7167 -79.5833 71° East 600 690 35,000  Level Edmonton Center
12:53AM 53.7833 -79.3000 68° East 600 690 35,000  Level Edmonton Center
12:54AM 53.8333 -79.0667 70° East 600 690 35,000  Level Edmonton Center
12:55AM 53.8833 -78.7833 73° East 610 702 35,000  Level Edmonton Center
12:56AM 53.9500 -78.5000 68° East 610 702 35,000  Level Edmonton Center
12:57AM 53.9833 -78.2167 79° East 610 702 35,000  Level Edmonton Center
12:58AM 54.0500 -77.9667 65° Northeast 610 702 35,000  Level Edmonton Center
12:59AM 54.1000 -77.6667 74° East 610 702 35,000  Level Edmonton Center
01:00AM 54.1500 -77.4167 71° East 610 702 35,000  Level Edmonton Center
01:01AM 54.2000 -77.1333 73° East 610 702 35,000  Level Edmonton Center
01:02AM 54.3167 -76.9000 49° Northeast 610 702 35,000  Level Gander Center
01:03AM 54.3667 -76.6167 73° East 610 702 35,000  Level Gander Center
01:04AM 54.4167 -76.3500 72° East 610 702 35,000  Level Gander Center
01:05AM 54.4667 -76.0833 72° East 610 702 35,000  Level Gander Center
01:06AM 54.5167 -75.7833 74° East 610 702 35,000  Level Gander Center
01:07AM 54.5667 -75.5000 73° East 600 690 35,000  Level Montreal Center
01:07AM 54.5667 -75.5000 73° East 610 702 35,000  Level Gander Center
01:08AM 54.6000 -75.2000 79° East 600 690 35,000  Level Montreal Center
01:09AM 54.6500 -74.9167 73° East 600 690 35,000  Level Montreal Center
01:10AM 54.7000 -74.6500 72° East 600 690 35,000  Level Montreal Center
01:11AM 54.7500 -74.3667 73° East 600 690 35,000  Level Montreal Center
01:12AM 54.7833 -74.1000 78° East 610 702 35,000  Level Montreal Center
01:13AM 54.8167 -73.8000 79° East 610 702 35,000  Level Montreal Center
01:14AM 54.8667 -73.5000 74° East 610 702 35,000  Level Montreal Center
01:15AM 54.9167 -73.2333 72° East 610 702 35,000  Level Montreal Center
01:16AM 54.9500 -72.9500 78° East 610 702 35,000  Level Montreal Center
01:17AM 55.0000 -72.6500 74° East 600 690 35,000  Level Montreal Center
01:18AM 55.0333 -72.3833 78° East 610 702 35,000  Level Montreal Center
01:19AM 55.0833 -72.0833 74° East 610 702 35,000  Level Montreal Center
01:20AM 55.1167 -71.7833 79° East 610 702 35,000  Level Montreal Center
01:21AM 55.1667 -71.4833 74° East 610 702 35,000  Level Montreal Center
01:22AM 55.2000 -71.1833 79° East 600 690 35,000  Level Montreal Center
01:23AM 55.2167 -70.9167 84° East 600 690 35,000  Level Montreal Center
01:24AM 55.2667 -70.6333 73° East 600 690 35,000  Level Montreal Center
01:25AM 55.3000 -70.3333 79° East 600 690 35,000  Level Montreal Center
01:26AM 55.3333 -70.0667 78° East 600 690 35,000  Level Montreal Center
01:27AM 55.3667 -69.7667 79° East 600 690 35,000  Level Gander Center
01:28AM 55.4000 -69.4667 79° East 600 690 35,000  Level Gander Center
01:29AM 55.4500 -69.1833 73° East 590 679 35,000  Level Gander Center
01:30AM 55.5333 -68.9667 56° Northeast 580 667 35,000  Level Gander Center
01:31AM 55.6167 -68.7167 59° Northeast 570 656 35,000  Level Gander Center
01:32AM 55.6833 -68.4667 65° Northeast 570 656 35,000  Level Gander Center
01:33AM 55.7667 -68.2000 61° Northeast 570 656 35,000  Level Gander Center
01:34AM 55.8500 -67.9500 59° Northeast 580 667 35,000  Level Gander Center
01:35AM 55.9000 -67.7000 70° East 580 667 35,000  Level Gander Center
01:36AM 55.9833 -67.4667 57° Northeast 580 667 35,000  Level Gander Center
01:37AM 56.0667 -67.2167 59° Northeast 580 667 35,000  Level Gander Center
01:38AM 56.1333 -66.9500 66° East 580 667 35,000  Level Gander Center
01:39AM 56.2000 -66.6833 66° East 580 667 35,000  Level Gander Center
01:40AM 56.2667 -66.4000 67° East 580 667 35,000  Level Gander Center
01:41AM 56.3500 -66.1667 57° Northeast 580 667 35,000  Level Gander Center
01:42AM 56.4167 -65.9000 66° East 580 667 35,000  Level Gander Center
01:43AM 56.5000 -65.6333 60° Northeast 580 667 35,000  Level Gander Center
01:44AM 56.5667 -65.4000 63° Northeast 570 656 35,000  Level Gander Center
01:45AM 56.6500 -65.1333 60° Northeast 580 667 35,000  Level Gander Center
01:46AM 56.7167 -64.8667 65° Northeast 570 656 35,000  Level Gander Center
01:47AM 56.8000 -64.6333 57° Northeast 570 656 35,000  Level Gander Center
01:48AM 56.8667 -64.3667 65° Northeast 580 667 35,000  Level Gander Center
01:49AM 56.9333 -64.1000 65° Northeast 580 667 35,000  Level Gander Center
01:50AM 57.0167 -63.8500 58° Northeast 580 667 35,000  Level Gander Center
01:51AM 57.1000 -63.5500 63° Northeast 580 667 35,000  Level Gander Center
01:52AM 57.1667 -63.3167 62° Northeast 580 667 35,000  Level Gander Center
01:53AM 57.2333 -63.0333 66° East 580 667 35,000  Level Gander Center
01:54AM 57.3167 -62.7667 60° Northeast 580 667 35,000  Level Gander Center
01:55AM 57.3833 -62.5167 64° Northeast 570 656 35,000  Level Gander Center
01:56AM 57.4500 -62.2500 65° Northeast 570 656 35,000  Level Gander Center
01:57AM 57.5167 -62.0000 64° Northeast 580 667 35,000  Level Gander Center
01:58AM 57.5833 -61.7167 66° East 570 656 35,000  Level Gander Center
01:59AM 57.6500 -61.4667 63° Northeast 560 644 35,000  Level Gander Center
02:00AM 57.7167 -61.1833 66° East 560 644 35,000  Level Gander Center
02:01AM 57.7833 -60.9333 63° Northeast 560 644 35,000  Level Gander Center
02:02AM 57.8333 -60.6833 69° East 550 633 35,000  Level Gander Center
02:03AM 57.9167 -60.4000 61° Northeast 560 644 35,000  Level Gander Center
02:04AM 57.9833 -60.1500 63° Northeast 550 633 35,000  Level Gander Center
02:05AM 58.0333 -59.8667 71° East 540 621 35,000  Level Gander Center
02:06AM 58.0500 -59.5833 84° East 550 633 35,000  Level Gander Center
02:07AM 58.0167 -59.9167 86° East 540 621 35,000  Level ETMS Enhanced Traffic Management System
02:08AM 58.0667 -59.0167 86° East 550 633 35,000  Level Gander Center
02:09AM 58.0667 -58.7333 90° East 550 633 35,000  Level Gander Center
02:10AM 58.0667 -58.4500 90° East 550 633 35,000  Level Gander Center
02:11AM 58.0833 -58.1667 84° East 540 621 35,000  Level Gander Center
02:12AM 58.1000 -57.8833 84° East 540 621 35,000  Level Gander Center
02:13AM 58.1000 -57.5833 90° East 540 621 35,000  Level Gander Center
02:14AM 58.1000 -57.3000 90° East 540 621 35,000  Level Gander Center
02:15AM 58.1000 -57.0167 90° East 530 610 35,000  Level Gander Center
02:16AM 58.1167 -56.7333 84° East 530 610 35,000  Level Gander Center
02:17AM 58.1167 -56.4500 90° East 530 610 35,000  Level Gander Center
02:18AM 58.1000 -56.2000 97° East 530 610 35,000  Level Gander Center
02:19AM 58.1167 -55.9167 84° East 530 610 35,000  Level Gander Center
02:20AM 58.1167 -55.6333 90° East 530 610 35,000  Level Gander Center
02:21AM 58.1167 -55.3500 90° East 530 610 35,000  Level Gander Center
02:22AM 58.1167 -55.1000 90° East 530 610 35,000  Level Gander Center
02:23AM 58.1167 -54.8000 90° East 530 610 35,000  Level Gander Center
02:24AM 58.1167 -54.5167 90° East 520 598 35,000  Level Gander Center
02:25AM 58.1000 -54.2667 97° East 520 598 35,000  Level Gander Center
02:27AM 58.1000 -53.9000 90° East 540 621 35,000  Level Gander Center
02:29AM 58.0945 -53.4421 91° East  Level FlightAware Approximate
02:33AM 58.0667 -52.1833 93° East 530 610 35,000  Level Gander Center
02:34AM 58.0667 -51.9333 90° East 530 610 35,000  Level Gander Center
02:35AM 58.0667 -51.6500 90° East 520 598 35,000  Level Gander Center
02:36AM 58.0549 -51.5771 92° East  Level FlightAware Approximate
02:37AM 58.0470 -51.3111 93° East  Level FlightAware Approximate
02:37AM 58.0507 -51.2030 94° East  Level FlightAware Approximate
02:38AM 58.0386 -51.0452 93° East  Level FlightAware Approximate
02:44AM 58.0228 -49.3471 86° East  Level FlightAware Approximate
02:45AM 58.0311 -49.0816 87° East  Level FlightAware Approximate
02:46AM 58.0388 -48.8160 87° East  Level FlightAware Approximate
02:47AM 58.0460 -48.5503 87° East  Level FlightAware Approximate
02:48AM 58.0526 -48.2845 87° East  Level FlightAware Approximate
02:49AM 58.0587 -48.0187 87° East  Level FlightAware Approximate
02:50AM 58.0642 -47.7527 88° East  Level FlightAware Approximate
02:51AM 58.0692 -47.4866 88° East  Level FlightAware Approximate
02:52AM 58.0736 -47.2205 88° East  Level FlightAware Approximate
02:53AM 58.0774 -46.9543 88° East  Level FlightAware Approximate
02:54AM 58.0807 -46.6881 89° East  Level FlightAware Approximate
02:55AM 58.0835 -46.4218 89° East  Level FlightAware Approximate
02:56AM 58.0857 -46.1555 89° East  Level FlightAware Approximate
02:57AM 58.0873 -45.8891 89° East  Level FlightAware Approximate
02:58AM 58.0884 -45.6228 89° East  Level FlightAware Approximate
02:59AM 58.0889 -45.3564 90° East  Level FlightAware Approximate
03:00AM 58.0889 -45.0900 90° East  Level FlightAware Approximate
03:01AM 58.0883 -44.8236 90° East  Level FlightAware Approximate
03:02AM 58.0872 -44.5573 90° East  Level FlightAware Approximate
03:03AM 58.0855 -44.2909 91° East  Level FlightAware Approximate
03:04AM 58.0832 -44.0246 91° East  Level FlightAware Approximate
03:05AM 58.0804 -43.7583 91° East  Level FlightAware Approximate
03:06AM 58.0771 -43.4921 91° East  Level FlightAware Approximate
03:07AM 58.0731 -43.2259 91° East  Level FlightAware Approximate
03:08AM 58.0687 -42.9598 92° East  Level FlightAware Approximate
03:09AM 58.0647 -42.6936 91° East  Level FlightAware Approximate
03:10AM 58.0608 -42.4276 91° East  Level FlightAware Approximate
03:11AM 58.0564 -42.1615 92° East  Level FlightAware Approximate
03:12AM 58.0514 -41.8956 92° East  Level FlightAware Approximate
03:13AM 58.0459 -41.6297 92° East  Level FlightAware Approximate
03:14AM 58.0399 -41.3639 92° East  Level FlightAware Approximate
03:15AM 58.0333 -41.0982 93° East  Level FlightAware Approximate
03:16AM 58.0261 -40.8326 93° East  Level FlightAware Approximate
03:17AM 58.0184 -40.5671 93° East  Level FlightAware Approximate
03:18AM 58.0101 -40.3017 93° East  Level FlightAware Approximate
03:19AM 58.0013 -40.0365 93° East  Level FlightAware Approximate
03:20AM 58.0314 -39.7785 75° East  Level FlightAware Approximate
03:21AM 58.0672 -39.5212 75° East  Level FlightAware Approximate
03:22AM 58.1026 -39.2634 75° East  Level FlightAware Approximate
03:23AM 58.1375 -39.0051 76° East  Level FlightAware Approximate
03:24AM 58.1718 -38.7463 76° East  Level FlightAware Approximate
03:25AM 58.2056 -38.4869 76° East  Level FlightAware Approximate
03:26AM 58.2389 -38.2271 76° East  Level FlightAware Approximate
03:27AM 58.2716 -37.9668 76° East  Level FlightAware Approximate
03:28AM 58.3038 -37.7061 77° East  Level FlightAware Approximate
03:29AM 58.3355 -37.4448 77° East  Level FlightAware Approximate
03:30AM 58.3666 -37.1831 77° East  Level FlightAware Approximate
03:31AM 58.3973 -36.9209 77° East  Level FlightAware Approximate
03:32AM 58.4273 -36.6583 78° East  Level FlightAware Approximate
03:33AM 58.4569 -36.3952 78° East  Level FlightAware Approximate
03:34AM 58.4859 -36.1317 78° East  Level FlightAware Approximate
03:35AM 58.5143 -35.8678 78° East  Level FlightAware Approximate
03:36AM 58.5423 -35.6034 78° East  Level FlightAware Approximate
03:37AM 58.5696 -35.3386 79° East  Level FlightAware Approximate
03:38AM 58.5965 -35.0735 79° East  Level FlightAware Approximate
03:39AM 58.6227 -34.8079 79° East  Level FlightAware Approximate
03:40AM 58.6485 -34.5419 79° East  Level FlightAware Approximate
03:41AM 58.6737 -34.2755 80° East  Level FlightAware Approximate
03:42AM 58.6984 -34.0088 80° East  Level FlightAware Approximate
03:43AM 58.7225 -33.7417 80° East  Level FlightAware Approximate
03:44AM 58.7461 -33.4742 80° East  Level FlightAware Approximate
03:45AM 58.7691 -33.2064 80° East  Level FlightAware Approximate
03:46AM 58.7916 -32.9382 81° East  Level FlightAware Approximate
03:47AM 58.8136 -32.6697 81° East  Level FlightAware Approximate
03:48AM 58.8349 -32.4008 81° East  Level FlightAware Approximate
03:49AM 58.8557 -32.1316 81° East  Level FlightAware Approximate
03:50AM 58.8760 -31.8621 82° East  Level FlightAware Approximate
03:51AM 58.8957 -31.5923 82° East  Level FlightAware Approximate
03:52AM 58.9148 -31.3222 82° East  Level FlightAware Approximate
03:53AM 58.9333 -31.0518 82° East  Level FlightAware Approximate
03:54AM 58.9514 -30.7810 83° East  Level FlightAware Approximate
03:55AM 58.9688 -30.5101 83° East  Level FlightAware Approximate
03:56AM 58.9856 -30.2388 83° East  Level FlightAware Approximate
03:57AM 59.0013 -29.9671 86° East  Level FlightAware Approximate
03:58AM 59.0114 -29.6944 86° East  Level FlightAware Approximate
03:59AM 59.0210 -29.4215 86° East  Level FlightAware Approximate
04:00AM 59.0301 -29.1485 86° East  Level FlightAware Approximate
04:01AM 59.0385 -28.8753 86° East  Level FlightAware Approximate
04:02AM 59.0464 -28.6020 87° East  Level FlightAware Approximate
04:03AM 59.0537 -28.3286 87° East  Level FlightAware Approximate
04:04AM 59.0604 -28.0550 87° East  Level FlightAware Approximate
04:05AM 59.0666 -27.7814 87° East  Level FlightAware Approximate
04:06AM 59.0721 -27.5076 88° East  Level FlightAware Approximate
04:07AM 59.0771 -27.2338 88° East  Level FlightAware Approximate
04:08AM 59.0816 -26.9599 88° East  Level FlightAware Approximate
04:09AM 59.0854 -26.6860 88° East  Level FlightAware Approximate
04:10AM 59.0887 -26.4119 89° East  Level FlightAware Approximate
04:11AM 59.0914 -26.1379 89° East  Level FlightAware Approximate
04:12AM 59.0935 -25.8638 89° East  Level FlightAware Approximate
04:13AM 59.0950 -25.5896 89° East  Level FlightAware Approximate
04:14AM 59.0960 -25.3155 89° East  Level FlightAware Approximate
04:15AM 59.0963 -25.0413 90° East  Level FlightAware Approximate
04:16AM 59.0961 -24.7671 90° East  Level FlightAware Approximate
04:17AM 59.0953 -24.4930 90° East  Level FlightAware Approximate
04:18AM 59.0940 -24.2188 90° East  Level FlightAware Approximate
04:19AM 59.0920 -23.9447 91° East  Level FlightAware Approximate
04:20AM 59.0895 -23.6706 91° East  Level FlightAware Approximate
04:21AM 59.0864 -23.3966 91° East  Level FlightAware Approximate
04:22AM 59.0828 -23.1226 91° East  Level FlightAware Approximate
04:23AM 59.0785 -22.8487 92° East  Level FlightAware Approximate
04:24AM 59.0737 -22.5748 92° East  Level FlightAware Approximate
04:25AM 59.0683 -22.3011 92° East  Level FlightAware Approximate
04:26AM 59.0623 -22.0274 92° East  Level FlightAware Approximate
04:27AM 59.0558 -21.7538 93° East  Level FlightAware Approximate
04:28AM 59.0486 -21.4804 93° East  Level FlightAware Approximate
04:29AM 59.0410 -21.2070 93° East  Level FlightAware Approximate
04:30AM 59.0327 -20.9338 93° East  Level FlightAware Approximate
04:31AM 59.0238 -20.6607 93° East  Level FlightAware Approximate
04:32AM 59.0144 -20.3878 94° East  Level FlightAware Approximate
04:33AM 59.0044 -20.1150 94° East  Level FlightAware Approximate
04:34AM 59.0029 -19.8420 88° East  Level FlightAware Approximate
04:35AM 59.0076 -19.5687 88° East  Level FlightAware Approximate
04:36AM 59.0117 -19.2953 88° East  Level FlightAware Approximate
04:37AM 59.0152 -19.0219 88° East  Level FlightAware Approximate
04:38AM 59.0181 -18.7485 89° East  Level FlightAware Approximate
04:39AM 59.0204 -18.4749 89° East  Level FlightAware Approximate
04:40AM 59.0222 -18.2014 89° East  Level FlightAware Approximate
04:41AM 59.0234 -17.9278 89° East  Level FlightAware Approximate
04:42AM 59.0240 -17.6542 90° East  Level FlightAware Approximate
04:43AM 59.0240 -17.3806 90° East  Level FlightAware Approximate
04:44AM 59.0235 -17.1070 90° East  Level FlightAware Approximate
04:45AM 59.0224 -16.8335 90° East  Level FlightAware Approximate
04:46AM 59.0207 -16.5599 91° East  Level FlightAware Approximate
04:47AM 59.0184 -16.2864 91° East  Level FlightAware Approximate
04:48AM 59.0156 -16.0129 91° East  Level FlightAware Approximate
04:49AM 59.0121 -15.7395 91° East  Level FlightAware Approximate
04:50AM 59.0081 -15.4661 92° East  Level FlightAware Approximate
04:51AM 59.0036 -15.1928 92° East  Level FlightAware Approximate
04:52AM 58.9770 -14.9332 124° Southeast  Level FlightAware Approximate
04:53AM 58.8984 -14.7067 124° Southeast  Level FlightAware Approximate
04:54AM 58.8194 -14.4812 124° Southeast  Level FlightAware Approximate
04:55AM 58.7401 -14.2568 124° Southeast  Level FlightAware Approximate
04:56AM 58.6603 -14.0334 124° Southeast  Level FlightAware Approximate
04:57AM 58.5802 -13.8111 125° Southeast  Level FlightAware Approximate
04:58AM 58.4997 -13.5897 125° Southeast  Level FlightAware Approximate
04:59AM 58.4188 -13.3694 125° Southeast  Level FlightAware Approximate
05:00AM 58.3375 -13.1501 125° Southeast  Level FlightAware Approximate
05:01AM 58.2559 -12.9317 125° Southeast  Level FlightAware Approximate
05:02AM 58.1739 -12.7144 126° Southeast  Level FlightAware Approximate
05:03AM 58.0915 -12.4981 126° Southeast  Level FlightAware Approximate
05:04AM 58.0094 -12.2820 126° Southeast  Level FlightAware Approximate
05:05AM 57.9271 -12.0664 126° Southeast  Level FlightAware Approximate
05:06AM 57.8445 -11.8519 126° Southeast  Level FlightAware Approximate
05:07AM 57.7616 -11.6384 126° Southeast  Level FlightAware Approximate
05:08AM 57.6783 -11.4258 126° Southeast  Level FlightAware Approximate
05:09AM 57.5946 -11.2142 126° Southeast  Level FlightAware Approximate
05:09AM 57.9200 -9.7050 127° Southeast 496 571 35,700  Level FlightAware
05:09AM 57.8960 -9.5810 110° East 496 571 35,700  Level FlightAware
05:10AM 57.5106 -11.0036 127° Southeast  Level FlightAware Approximate
05:10AM 57.8640 -9.4150 110° East 496 571 35,700  Level FlightAware
05:11AM 57.8080 -9.1920 115° Southeast 503 579 38,100 2,040 Climbing FlightAware
05:12AM 57.7591 -8.9728 115° Southeast 476 548 38,900 960 Climbing FlightAware UK
05:12AM 57.7570 -8.9550 115° Southeast 492 566 39,000 60 Climbing FlightAware
05:13AM 57.7170 -8.7830 115° Southeast 493 567 39,000 -180 Level FlightAware
05:13AM 57.7071 -8.7375 115° Southeast 476 548 38,900 -180 Descending FlightAware UK
05:13AM 57.6807 -8.6193 115° Southeast 474 545 38,900 120 Level FlightAware UK
05:14AM 57.6710 -8.5790 115° Southeast 492 566 39,000 60 Climbing FlightAware
05:14AM 57.6350 -8.4210 113° Southeast 492 566 39,000 -120 Level FlightAware
05:15AM 57.6000 -8.2656 113° Southeast 474 545 38,900  Descending FlightAware UK
05:15AM 57.5980 -8.2590 113° Southeast 492 566 39,000 60 Climbing FlightAware
05:16AM 57.5540 -8.0650 113° Southeast 492 566 39,000 -120 Level FlightAware
05:16AM 57.5465 -8.0336 113° Southeast 474 545 38,900  Descending FlightAware UK
05:16AM 57.5198 -7.9175 113° Southeast 474 545 39,000 60 Climbing FlightAware UK
05:17AM 57.4990 -7.8310 114° Southeast 493 567 39,000  Level FlightAware
05:17AM 57.4926 -7.8017 114° Southeast 472 543 39,000  Level FlightAware UK
05:17AM 57.4652 -7.6855 114° Southeast 472 543 39,000  Level FlightAware UK
05:18AM 57.4470 -7.6080 114° Southeast 492 566 39,000  Level FlightAware
05:18AM 57.4099 -7.4521 114° Southeast 472 543 39,000  Level FlightAware UK
05:18AM 57.4040 -7.4280 114° Southeast 492 566 39,000  Level FlightAware
05:19AM 57.3670 -7.2710 114° Southeast 492 566 39,000  Level FlightAware
05:20AM 57.3330 -7.1340 115° Southeast 491 565 39,000  Level FlightAware
05:20AM 57.2928 -6.9653 115° Southeast 472 543 39,000  Level FlightAware UK
05:20AM 57.2920 -6.9630 115° Southeast 492 566 39,000  Level FlightAware
05:21AM 57.2500 -6.7910 114° Southeast 494 568 39,000  Level FlightAware
05:22AM 57.2110 -6.6340 114° Southeast 499 574 39,000  Level FlightAware
05:22AM 57.2077 -6.6192 114° Southeast 472 543 39,000  Level FlightAware UK
05:23AM 57.1733 -6.4803 114° Southeast 470 541 39,000  Level FlightAware UK
05:23AM 57.1690 -6.4620 114° Southeast 501 577 39,000  Level FlightAware
05:23AM 57.1290 -6.3040 115° Southeast 502 578 39,000  Level FlightAware
05:24AM 57.0858 -6.1313 115° Southeast 472 543 39,000  Level FlightAware UK
05:24AM 57.0860 -6.1330 115° Southeast 502 578 39,000  Level FlightAware
05:25AM 57.0550 -6.0100 115° Southeast 501 577 39,000  Level FlightAware
05:25AM 57.0020 -5.8040 115° Southeast 502 578 39,000  Level FlightAware
05:26AM 56.9621 -5.6472 115° Southeast 472 543 39,000  Level FlightAware UK
05:26AM 56.9630 -5.6530 115° Southeast 499 574 39,000  Level FlightAware
05:27AM 56.9320 -5.5323 115° Southeast 472 543 39,000  Level FlightAware UK
05:27AM 56.9230 -5.4980 115° Southeast 500 575 39,000  Level FlightAware
05:28AM 56.8790 -5.3270 115° Southeast 498 573 39,000  Level FlightAware
05:28AM 56.8380 -5.1730 116° Southeast 501 577 39,000 -120 Level FlightAware
05:29AM 56.7992 -5.0266 116° Southeast 472 543 38,900  Descending FlightAware UK
05:29AM 56.7980 -5.0210 116° Southeast 502 578 39,000  Climbing FlightAware
05:29AM 56.7626 -4.8893 116° Southeast 476 548 38,900  Descending FlightAware UK
05:30AM 56.7259 -4.7524 116° Southeast 472 543 39,000 60 Climbing FlightAware UK
05:31AM 56.7470 -4.8310 116° Southeast 504 580 39,000  Level FlightAware
05:31AM 56.6510 -4.4770 116° Southeast 501 577 39,000  Level FlightAware
05:32AM 56.6050 -4.3070 116° Southeast 501 577 39,000  Level FlightAware
05:33AM 56.5640 -4.1600 117° Southeast 499 574 39,000  Level FlightAware
05:33AM 56.5230 -4.0100 116° Southeast 500 575 39,000  Level FlightAware
05:34AM 56.4770 -3.8440 117° Southeast 500 575 39,000  Level FlightAware
05:35AM 56.4290 -3.6750 117° Southeast 502 578 39,000  Level FlightAware
05:36AM 56.3870 -3.5260 117° Southeast 501 577 39,000 -120 Level FlightAware
05:36AM 56.3521 -3.4025 117° Southeast 470 541 38,900  Descending FlightAware UK
05:36AM 56.3420 -3.3600 117° Southeast 503 579 39,000 60 Climbing FlightAware
05:37AM 56.3040 -3.2080 114° Southeast 504 580 39,000  Level FlightAware
05:38AM 56.2630 -3.0460 114° Southeast 506 582 39,000  Level FlightAware
05:38AM 56.2220 -2.8880 115° Southeast 506 582 39,000  Level FlightAware
05:39AM 56.1780 -2.7190 115° Southeast 506 582 39,000  Level FlightAware
05:40AM 56.1390 -2.5720 115° Southeast 507 583 39,000  Level FlightAware
05:40AM 56.0980 -2.4180 115° Southeast 507 583 39,000  Level FlightAware
05:41AM 56.0620 -2.2850 116° Southeast 509 586 39,000  Level FlightAware
05:42AM 56.0252 -2.1474 116° Southeast 472 543 39,000  Level FlightAware UK
05:42AM 56.0180 -2.1210 116° Southeast 510 587 39,000  Level FlightAware
05:42AM 55.9760 -1.9640 115° Southeast 510 587 39,000  Level FlightAware
05:43AM 55.9400 -1.8310 116° Southeast 511 588 39,000  Level FlightAware
05:44AM 55.9010 -1.6770 114° Southeast 512 589 39,000 -120 Level FlightAware
05:44AM 55.8728 -1.5500 114° Southeast 472 543 38,900  Descending FlightAware UK
05:44AM 55.8640 -1.5070 114° Southeast 513 590 39,000 60 Climbing FlightAware
05:45AM 55.8290 -1.3500 112° Southeast 513 590 39,000  Level FlightAware
05:46AM 55.7920 -1.1800 111° Southeast 515 593 39,000  Level FlightAware
05:46AM 55.7560 -1.0170 111° Southeast 514 592 39,000  Level FlightAware
05:46AM 55.7536 -1.0071 111° Southeast 472 543 39,000  Level FlightAware UK
05:47AM 55.7274 -0.8895 111° Southeast 470 541 39,000  Level FlightAware UK
05:47AM 55.7180 -0.8480 111° Southeast 514 592 39,000  Level FlightAware
05:48AM 55.6890 -0.7180 112° Southeast 515 593 39,000  Level FlightAware
05:48AM 55.6500 -0.5470 112° Southeast 517 595 39,000  Level FlightAware
05:49AM 55.6205 -0.4196 112° Southeast 472 543 39,000  Level FlightAware UK
05:49AM 55.6150 -0.3960 112° Southeast 517 595 39,000  Level FlightAware
05:50AM 55.5800 -0.2440 112° Southeast 518 596 39,000  Level FlightAware
05:50AM 55.5442 -0.0900 112° Southeast 470 541 39,000  Level FlightAware UK
05:50AM 55.5430 -0.0850 112° Southeast 518 596 39,000  Level FlightAware
05:51AM 55.5050 0.0780 112° Southeast 519 597 39,000  Level FlightAware
05:52AM 55.4729 0.2142 112° Southeast 472 543 39,000  Level FlightAware UK
05:52AM 55.4680 0.2340 112° Southeast 518 596 39,000  Level FlightAware
05:52AM 55.4341 0.3785 112° Southeast 472 543 39,000  Level FlightAware UK
05:52AM 55.4340 0.3800 112° Southeast 518 596 39,000  Level FlightAware
05:53AM 55.3920 0.5520 113° Southeast 518 596 39,000  Level FlightAware
05:54AM 55.3600 0.6860 113° Southeast 518 596 39,000  Level FlightAware
05:55AM 55.3162 0.8668 113° Southeast 470 541 39,000  Level FlightAware UK
05:55AM 55.3150 0.8740 113° Southeast 519 597 39,000  Level FlightAware
05:55AM 55.2780 1.0240 113° Southeast 517 595 39,000  Level FlightAware
05:56AM 55.2350 1.1980 113° Southeast 520 598 39,000  Level FlightAware
05:57AM 55.2020 1.3280 114° Southeast 522 601 39,000  Level FlightAware
05:57AM 55.1570 1.5090 113° Southeast 523 602 39,000  Level FlightAware
05:58AM 55.1130 1.6850 114° Southeast 523 602 39,000  Level FlightAware
05:59AM 55.0770 1.8280 114° Southeast 522 601 39,000  Level FlightAware
05:59AM 55.0360 1.9890 114° Southeast 523 602 39,000  Level FlightAware
06:00AM 54.9940 2.1490 115° Southeast 525 604 39,000  Level FlightAware
06:01AM 54.9540 2.3060 114° Southeast 524 603 39,000  Level FlightAware
06:02AM 54.9065 2.4870 114° Southeast 470 541 39,000  Level FlightAware UK
06:02AM 54.9080 2.4790 114° Southeast 524 603 39,000  Level FlightAware
06:02AM 54.8762 2.6016 114° Southeast 470 541 39,000  Level FlightAware UK
06:02AM 54.8580 2.6710 114° Southeast 525 604 39,000  Level FlightAware
06:03AM 54.8215 2.8084 114° Southeast 470 541 39,000  Level FlightAware UK
06:03AM 54.8080 2.8620 114° Southeast 526 605 39,000  Level FlightAware
06:04AM 54.7680 3.0030 116° Southeast 528 608 39,000  Level FlightAware
06:05AM 54.7130 3.1140 131° Southeast 524 603 39,000  Level FlightAware
06:05AM 54.6144 3.1911 131° Southeast 470 541 39,000  Level FlightAware UK
06:05AM 54.5690 3.2060 131° Southeast 508 585 39,000  Level FlightAware
06:06AM 54.4810 3.2330 170° South 508 585 39,000  Level FlightAware
06:07AM 54.3760 3.2650 170° South 508 585 39,000  Level FlightAware
06:08AM 54.2770 3.3130 164° South 517 595 39,000  Level FlightAware
06:08AM 54.1990 3.3990 147° Southeast 524 603 39,000  Level FlightAware
06:09AM 54.1120 3.5180 141° Southeast 523 602 39,000  Level FlightAware
06:10AM 54.0440 3.6110 141° Southeast 522 601 39,000  Level FlightAware
06:10AM 53.9700 3.7110 142° Southeast 521 600 39,000 -120 Level FlightAware
06:11AM 53.8808 3.8298 142° Southeast 470 541 38,900  Descending FlightAware UK
06:11AM 53.8710 3.8420 142° Southeast 522 601 39,000 120 Climbing FlightAware
06:12AM 53.8013 3.9351 142° Southeast 472 543 39,000  Level FlightAware UK
06:12AM 53.7820 3.9610 142° Southeast 522 601 39,000  Level FlightAware
06:13AM 53.6870 4.0850 142° Southeast 521 600 39,000  Level FlightAware
06:13AM 53.6080 4.1900 142° Southeast 520 598 39,000  Level FlightAware
06:14AM 53.5340 4.2860 142° Southeast 521 600 39,000  Level FlightAware
06:15AM 53.4478 4.3970 142° Southeast 470 541 39,000  Level FlightAware UK
06:16AM 53.3770 4.4900 142° Southeast 521 600 39,000  Level FlightAware
06:16AM 53.2870 4.6050 143° Southeast 520 598 39,000  Level FlightAware
06:17AM 53.2050 4.7100 142° Southeast 520 598 39,000  Level FlightAware
06:18AM 53.1392 4.7933 142° Southeast 470 541 39,000  Level FlightAware UK
06:18AM 53.1300 4.8060 142° Southeast 520 598 39,000  Level FlightAware
06:18AM 53.0440 4.9140 143° Southeast 521 600 39,000  Level FlightAware
06:19AM 52.9700 5.0070 143° Southeast 521 600 39,000  Level FlightAware
06:20AM 52.8860 5.1130 143° Southeast 521 600 39,000  Level FlightAware
06:20AM 52.8090 5.2100 143° Southeast 520 598 39,000  Level FlightAware
06:21AM 52.7494 5.2846 143° Southeast 472 543 39,000  Level FlightAware UK
06:21AM 52.7270 5.3110 143° Southeast 521 600 39,000  Level FlightAware
06:22AM 52.6560 5.3990 143° Southeast 521 600 39,000  Level FlightAware
06:23AM 52.5660 5.5110 143° Southeast 522 601 39,000  Level FlightAware
06:23AM 52.4860 5.6090 143° Southeast 521 600 39,000  Level FlightAware
06:24AM 52.4020 5.7110 143° Southeast 522 601 39,000  Level FlightAware
06:25AM 52.3210 5.8090 144° Southeast 522 601 39,000  Level FlightAware
06:25AM 52.2360 5.9120 143° Southeast 521 600 39,000  Level FlightAware
06:26AM 52.1670 5.9950 144° Southeast 522 601 39,000  Level FlightAware
06:27AM 52.0810 6.0980 144° Southeast 522 601 39,000  Level FlightAware
06:27AM 51.9980 6.1970 144° Southeast 522 601 39,000  Level FlightAware
06:28AM 51.9110 6.3010 144° Southeast 522 601 39,000  Level FlightAware
06:29AM 51.8430 6.3810 144° Southeast 522 601 39,000  Level FlightAware
06:30AM 51.7560 6.4830 144° Southeast 522 601 39,000  Level FlightAware
06:30AM 51.6700 6.5840 144° Southeast 523 602 39,000  Level FlightAware
06:31AM 51.5830 6.6850 144° Southeast 522 601 39,000  Level FlightAware
06:32AM 51.4970 6.7690 149° Southeast 522 601 39,000  Level FlightAware
06:32AM 51.4090 6.8310 156° South 521 600 39,000  Level FlightAware
06:33AM 51.3190 6.8880 158° South 521 600 39,000  Level FlightAware
06:34AM 51.2190 6.9510 158° South 521 600 39,000  Level FlightAware
06:34AM 51.1200 7.0140 158° South 521 600 39,000  Level FlightAware
06:35AM 51.0340 7.0690 158° South 521 600 39,000  Level FlightAware
06:36AM 50.9410 7.1280 158° South 522 601 39,000  Level FlightAware
06:37AM 50.8450 7.1890 158° South 522 601 39,000  Level FlightAware
06:37AM 50.7530 7.2470 158° South 522 601 39,000  Level FlightAware
06:38AM 50.6560 7.3080 158° South 521 600 39,000  Level FlightAware
06:39AM 50.5570 7.3690 159° South 521 600 39,000  Level FlightAware
06:39AM 50.4660 7.4260 158° South 522 601 39,000  Level FlightAware
06:40AM 50.3770 7.4810 158° South 522 601 39,000  Level FlightAware
06:41AM 50.2830 7.5390 158° South 522 601 39,000  Level FlightAware
06:41AM 50.1830 7.6000 159° South 522 601 39,000  Level FlightAware
06:42AM 50.0900 7.6570 159° South 522 601 39,000  Level FlightAware
06:43AM 50.0010 7.7110 159° South 521 600 39,000  Level FlightAware
06:44AM 49.9040 7.7690 159° South 521 600 39,000  Level FlightAware
06:44AM 49.8020 7.8310 159° South 521 600 39,000  Level FlightAware
06:45AM 49.7130 7.8840 159° South 522 601 39,000  Level FlightAware
06:46AM 49.6170 7.9420 159° South 520 598 39,000  Level FlightAware
06:46AM 49.5250 7.9960 159° South 519 597 39,000  Level FlightAware
06:47AM 49.4280 8.0530 159° South 518 596 39,000  Level FlightAware
06:48AM 49.3390 8.1060 159° South 519 597 39,000  Level FlightAware
06:48AM 49.2390 8.1650 159° South 518 596 39,000  Level FlightAware
06:49AM 49.1610 8.2110 159° South 518 596 39,000  Level FlightAware
06:50AM 49.0660 8.2660 159° South 518 596 39,000  Level FlightAware
06:50AM 48.9810 8.3060 163° South 510 587 39,000  Level FlightAware
06:51AM 48.8820 8.3230 174° South 517 595 39,000  Level FlightAware
06:52AM 48.8000 8.3310 176° South 516 594 39,000  Level FlightAware
06:52AM 48.6970 8.3400 177° South 518 596 39,000  Level FlightAware
06:53AM 48.5540 8.3540 176° South 517 595 39,000  Level FlightAware
06:54AM 48.4630 8.3620 177° South 516 594 39,000  Level FlightAware
06:55AM 48.3270 8.3780 176° South 513 590 39,000  Level FlightAware
06:56AM 48.2330 8.3920 174° South 504 580 39,000  Level FlightAware
06:56AM 48.1280 8.4060 175° South 504 580 39,000  Level FlightAware
06:57AM 48.0420 8.4170 175° South 503 579 39,000  Level FlightAware
06:58AM 47.9500 8.4300 175° South 502 578 39,000  Level FlightAware
06:58AM 47.8570 8.4420 175° South 502 578 39,000  Level FlightAware
06:59AM 47.7530 8.4550 175° South 501 577 39,000  Level FlightAware
07:00AM 47.6790 8.4650 175° South 509 586 39,000  Level FlightAware
07:01AM 47.5010 8.4880 175° South 507 583 39,000  Level FlightAware
07:01AM 47.4340 8.4970 175° South 507 583 39,000  Level FlightAware
07:02AM 47.3440 8.5090 175° South 507 583 39,000  Level FlightAware
07:03AM 47.2370 8.5220 175° South 505 581 39,000  Level FlightAware
07:03AM 47.1470 8.5340 175° South 505 581 39,000  Level FlightAware
07:04AM 47.0430 8.5470 175° South 504 580 39,000  Level FlightAware
07:05AM 46.9510 8.5590 175° South 503 579 39,000  Level FlightAware
07:06AM 46.8480 8.5720 175° South 502 578 39,000  Level FlightAware
07:06AM 46.7550 8.5840 175° South 501 577 39,000  Level FlightAware
07:07AM 46.6610 8.5950 175° South 500 575 39,000  Level FlightAware
07:08AM 46.5600 8.6100 174° South 499 574 39,000  Level FlightAware
07:08AM 46.4730 8.6460 164° South 493 567 39,000  Level FlightAware
07:09AM 46.3820 8.7150 152° Southeast 490 564 39,000  Level FlightAware
07:10AM 46.3040 8.7760 152° Southeast 489 563 39,000  Level FlightAware
07:10AM 46.2160 8.8440 152° Southeast 489 563 39,000  Level FlightAware
07:11AM 46.1580 8.8880 152° Southeast 490 564 39,000  Level FlightAware
07:12AM 46.0480 8.9720 152° Southeast 489 563 39,000  Level FlightAware
07:13AM 45.9620 9.0380 152° Southeast 489 563 39,000  Level FlightAware
07:13AM 45.8830 9.0970 153° Southeast 488 562 39,000  Level FlightAware
07:14AM 45.7990 9.1600 152° Southeast 488 562 39,000  Level FlightAware
07:15AM 45.7180 9.2210 152° Southeast 488 562 39,000  Level FlightAware
07:15AM 45.6330 9.2860 152° Southeast 488 562 39,000  Level FlightAware
07:16AM 45.5540 9.3440 153° Southeast 488 562 39,000  Level FlightAware
07:17AM 45.4660 9.4100 152° Southeast 488 562 39,000  Level FlightAware
07:17AM 45.3810 9.4730 152° Southeast 487 560 39,000  Level FlightAware
07:18AM 45.2970 9.5350 153° Southeast 487 560 39,000  Level FlightAware
07:19AM 45.2040 9.6030 153° Southeast 487 560 39,000  Level FlightAware
07:20AM 45.1160 9.6680 152° Southeast 486 559 39,000  Level FlightAware
07:20AM 45.0390 9.7250 152° Southeast 486 559 39,000  Level FlightAware
07:21AM 44.9480 9.7910 153° Southeast 486 559 39,000  Level FlightAware
07:22AM 44.8720 9.8460 153° Southeast 485 558 39,000  Level FlightAware
07:22AM 44.7880 9.9060 153° Southeast 485 558 39,000  Level FlightAware
07:23AM 44.7210 9.9550 153° Southeast 484 557 39,000  Level FlightAware
07:24AM 44.6290 10.0210 153° Southeast 476 548 39,000  Level FlightAware
07:24AM 44.5490 10.0780 153° Southeast 484 557 39,000  Level FlightAware
07:25AM 44.4780 10.1220 156° South 485 558 39,000  Level FlightAware
07:26AM 44.3850 10.1730 159° South 479 551 39,000  Level FlightAware
07:26AM 44.3000 10.2180 159° South 479 551 39,000  Level FlightAware
07:27AM 44.2300 10.2540 160° South 477 549 39,000  Level FlightAware
07:28AM 44.1350 10.3030 160° South 482 555 39,000  Level FlightAware
07:28AM 44.0580 10.3430 160° South 480 552 39,000  Level FlightAware
07:29AM 43.9840 10.3820 159° South 480 552 39,000  Level FlightAware
07:30AM 43.8660 10.4420 160° South 479 551 39,000  Level FlightAware
07:31AM 43.7550 10.4990 160° South 478 550 39,000 -120 Level FlightAware
07:31AM 43.6670 10.5440 160° South 476 548 38,900 -720 Descending FlightAware
07:32AM 43.5890 10.5840 160° South 478 550 38,100 -1,440 Descending FlightAware
07:33AM 43.5120 10.6240 159° South 483 556 37,100 -2,280 Descending FlightAware
07:33AM 43.4250 10.6780 156° South 488 562 35,100 -3,120 Descending FlightAware
07:34AM 43.3400 10.7630 144° Southeast 489 563 32,600 -3,120 Descending FlightAware
07:35AM 43.2830 10.8250 142° Southeast 484 557 31,100 -2,460 Descending FlightAware
07:35AM 43.1980 10.9170 142° Southeast 468 539 29,300 -2,400 Descending FlightAware
07:36AM 43.1250 10.9960 142° Southeast 465 535 27,400 -2,460 Descending FlightAware
07:37AM 43.0570 11.0690 142° Southeast 455 524 25,900 -2,220 Descending FlightAware
07:38AM 42.9840 11.1460 142° Southeast 446 513 24,300 -2,160 Descending FlightAware
07:38AM 42.9270 11.2070 142° Southeast 437 503 23,100 -1,920 Descending FlightAware
07:39AM 42.8510 11.2730 148° Southeast 422 486 21,700 -1,980 Descending FlightAware
07:40AM 42.7840 11.3240 151° Southeast 417 480 20,300 -1,920 Descending FlightAware
07:40AM 42.7150 11.3740 152° Southeast 409 471 19,200 -1,680 Descending FlightAware
07:41AM 42.6370 11.4290 153° Southeast 401 461 17,900 -1,860 Descending FlightAware
07:42AM 42.5710 11.4770 152° Southeast 396 456 16,500 -1,920 Descending FlightAware
07:42AM 42.5040 11.5260 152° Southeast 381 438 15,300 -1,380 Descending FlightAware
07:43AM 42.4380 11.5730 152° Southeast 354 407 14,600 -840 Descending FlightAware
07:44AM 42.3870 11.6090 152° Southeast 334 384 14,200 -660 Descending FlightAware
07:44AM 42.3350 11.6470 152° Southeast 315 362 13,800 -1,080 Descending FlightAware
07:45AM 42.2850 11.6830 152° Southeast 299 344 12,800 -1,980 Descending FlightAware
07:46AM 42.2350 11.7190 152° Southeast 306 352 11,200 -1,680 Descending FlightAware
07:46AM 42.1990 11.7720 133° Southeast 286 329 10,600 -1,440 Descending FlightAware
07:47AM 42.1830 11.8090 120° Southeast 284 327 9,700 -1,920 Descending FlightAware
07:47AM 42.1650 11.8530 119° Southeast 266 306 8,900 -1,920 Descending FlightAware
07:48AM 42.1540 11.8740 125° Southeast 263 303 8,300 -2,220 Descending FlightAware
07:48AM 42.1340 11.9110 126° Southeast 252 290 7,300 -2,040 Descending FlightAware
07:49AM 42.1170 11.9480 122° Southeast 243 280 6,400 -2,160 Descending FlightAware
07:49AM 42.1020 11.9860 118° Southeast 247 284 5,300 -1,980 Descending FlightAware
07:49AM 42.0890 12.0190 118° Southeast 245 282 4,700 -1,260 Descending FlightAware
07:50AM 42.0740 12.0600 116° Southeast 243 280 4,200 -900 Descending FlightAware
07:50AM 42.0590 12.0920 122° Southeast 239 275 3,900 -360 Descending FlightAware
07:51AM 42.0400 12.1200 132° Southeast 224 258 3,900  Level FlightAware
07:51AM 42.0310 12.1310 138° Southeast 216 249 3,900  Level FlightAware
07:51AM 42.0170 12.1410 152° Southeast 206 237 3,900 -720 Level FlightAware
07:52AM 41.9910 12.1520 163° South 208 239 3,400 -1,080 Descending FlightAware
07:52AM 41.9660 12.1630 162° South 209 241 2,900 -1,140 Descending FlightAware
07:53AM 41.9420 12.1730 163° South 197 227 2,400 -1,080 Descending FlightAware
07:53AM 41.9250 12.1800 163° South 184 212 2,100 -900 Descending FlightAware
07:53AM 41.9040 12.1890 162° South 168 193 1,700 -900 Descending FlightAware
07:54AM 41.8840 12.1980 161° South 143 165 1,300 -900 Descending FlightAware
07:54AM 41.8760 12.2010 164° South 144 166 1,100 -780 Descending FlightAware
07:55AM 41.8580 12.2080 164° South 143 165 800 -780 Descending FlightAware
07:55AM 41.8510 12.2120 157° South 139 160 600 -840 Descending FlightAware
07:55AM 41.8360 12.2180 163° South 142 163 300 -780 Descending FlightAware
07:56AM 41.8180 12.2250 164° South 144 166 -660 Descending FlightAware
07:56AM 41.8020 12.2320 162° South 94 108  Level FlightAware
07:57AM 41.7960 12.2350 160° South 27 31  Level FlightAware
07:57AM 41.7950 12.2360 143° Southeast 23 26  Level FlightAware
07:57AM 41.7930 12.2380 143° Southeast 30 35  Level FlightAware
07:58AM 41.7940 12.2390 37° Northeast 31 36  Level FlightAware
07:58AM 41.7950 12.2380 323° Northwest 15 17  Level FlightAware
07:58AM 41.7970 12.2380 360° North 26 30  Level FlightAware
07:59AM 41.7970 12.2400 90° East 27 31  Level FlightAware
07:59AM 41.7980 12.2410 37° Northeast 30 35  Level FlightAware
08:00AM 41.7980 12.2430 90° East 20 23  Level FlightAware
08:03AM 41.8000 12.2333 143° Southeast  Level FlightAware Approximate
08:04AM 41.8045 12.2508 143° Southeast  Level Estimated
08:05AM 41.8045 12.2508 143° Southeast  Level Estimated
08:06AM 41.8045 12.2508 143° Southeast  Level Estimated
08:07AM 41.8045 12.2508 143° Southeast  Level Estimated
08:08AM 41.8045 12.2508 143° Southeast  Level Estimated
08:09AM 41.8045 12.2508 143° Southeast  Level Estimated
08:10AM 41.8045 12.2508 143° Southeast  Level Estimated
08:11AM 41.8045 12.2508 143° Southeast  Level Estimated
08:12AM 41.8045 12.2508 143° Southeast  Level Estimated
08:13AM 41.8045 12.2508 143° Southeast  Level Estimated
08:14AM 41.8045 12.2508 143° Southeast  Level Estimated
08:15AM 41.8045 12.2508 143° Southeast  Level Estimated
08:16AM 41.8045 12.2508 143° Southeast  Level Estimated
08:17AM 41.8045 12.2508 143° Southeast  Level Estimated
08:18AM 41.8045 12.2508 143° Southeast  Level Estimated